sensor_id;sensor_type;location;lat;lon;timestamp;temperature;humidity
9768;DHT22;4923;52.520;13.494;2023-04-12T00:02:34;4.40;99.90
9768;DHT22;4923;52.520;13.494;2023-04-12T00:05:23;4.30;99.90
9768;DHT22;4923;52.520;13.494;2023-04-12T00:08:11;4.30;99.90
9768;DHT22;4923;52.520;13.494;2023-04-12T00:10:59;4.20;99.90
9768;DHT22;4923;52.520;13.494;2023-04-12T00:13:45;4.20;99.90
9768;DHT22;4923;52.520;13.494;2023-04-12T00:16:32;4.20;99.90
9768;DHT22;4923;52.520;13.494;2023-04-12T00:19:20;4.20;99.90
9768;DHT22;4923;52.520;13.494;2023-04-12T00:22:14;4.20;99.90
9768;DHT22;4923;52.520;13.494;2023-04-12T00:25:00;4.10;99.90
9768;DHT22;4923;52.520;13.494;2023-04-12T00:27:47;4.10;99.90
9768;DHT22;4923;52.520;13.494;2023-04-12T00:30:34;4.00;99.90
9768;DHT22;4923;52.520;13.494;2023-04-12T00:33:21;3.90;99.90
9768;DHT22;4923;52.520;13.494;2023-04-12T00:36:08;3.90;99.90
9768;DHT22;4923;52.520;13.494;2023-04-12T00:38:57;3.90;99.90
9768;DHT22;4923;52.520;13.494;2023-04-12T00:41:44;3.90;1.00
9768;DHT22;4923;52.520;13.494;2023-04-12T00:44:31;3.90;1.00
9768;DHT22;4923;52.520;13.494;2023-04-12T00:47:19;3.90;1.00
9768;DHT22;4923;52.520;13.494;2023-04-12T00:50:07;3.80;1.00
9768;DHT22;4923;52.520;13.494;2023-04-12T00:52:56;3.80;1.00
9768;DHT22;4923;52.520;13.494;2023-04-12T00:55:45;3.70;1.00
9768;DHT22;4923;52.520;13.494;2023-04-12T00:58:32;3.70;1.00
9768;DHT22;4923;52.520;13.494;2023-04-12T01:01:19;3.70;1.00
9768;DHT22;4923;52.520;13.494;2023-04-12T01:04:06;3.70;1.00
9768;DHT22;4923;52.520;13.494;2023-04-12T01:07:04;3.80;1.00
9768;DHT22;4923;52.520;13.494;2023-04-12T01:10:00;3.70;1.00
9768;DHT22;4923;52.520;13.494;2023-04-12T01:12:57;3.80;1.00
9768;DHT22;4923;52.520;13.494;2023-04-12T01:15:53;3.70;1.00
9768;DHT22;4923;52.520;13.494;2023-04-12T01:18:44;3.70;1.00
9768;DHT22;4923;52.520;13.494;2023-04-12T01:21:48;3.60;1.00
9768;DHT22;4923;52.520;13.494;2023-04-12T01:24:48;3.60;1.00
9768;DHT22;4923;52.520;13.494;2023-04-12T01:27:44;3.50;1.00
9768;DHT22;4923;52.520;13.494;2023-04-12T01:30:32;3.60;1.00
9768;DHT22;4923;52.520;13.494;2023-04-12T01:33:19;3.60;1.00
9768;DHT22;4923;52.520;13.494;2023-04-12T01:36:10;3.50;1.00
9768;DHT22;4923;52.520;13.494;2023-04-12T01:38:57;3.50;1.00
9768;DHT22;4923;52.520;13.494;2023-04-12T01:41:45;3.50;1.00
9768;DHT22;4923;52.520;13.494;2023-04-12T01:44:35;3.50;1.00
9768;DHT22;4923;52.520;13.494;2023-04-12T01:47:21;3.40;1.00
9768;DHT22;4923;52.520;13.494;2023-04-12T01:50:13;3.40;1.00
9768;DHT22;4923;52.520;13.494;2023-04-12T01:53:07;3.40;1.00
9768;DHT22;4923;52.520;13.494;2023-04-12T01:55:58;3.30;1.00
9768;DHT22;4923;52.520;13.494;2023-04-12T01:58:47;3.30;1.00
9768;DHT22;4923;52.520;13.494;2023-04-12T02:01:37;3.20;1.00
9768;DHT22;4923;52.520;13.494;2023-04-12T02:04:25;3.10;1.00
9768;DHT22;4923;52.520;13.494;2023-04-12T02:07:14;3.00;1.00
9768;DHT22;4923;52.520;13.494;2023-04-12T02:10:04;3.00;1.00
9768;DHT22;4923;52.520;13.494;2023-04-12T02:12:50;3.00;1.00
9768;DHT22;4923;52.520;13.494;2023-04-12T02:15:39;2.90;1.00
9768;DHT22;4923;52.520;13.494;2023-04-12T02:18:27;2.90;1.00
9768;DHT22;4923;52.520;13.494;2023-04-12T02:21:14;2.90;1.00
9768;DHT22;4923;52.520;13.494;2023-04-12T02:24:04;2.80;1.00
9768;DHT22;4923;52.520;13.494;2023-04-12T02:26:51;2.80;99.90
9768;DHT22;4923;52.520;13.494;2023-04-12T02:29:39;2.80;1.00
9768;DHT22;4923;52.520;13.494;2023-04-12T02:32:26;2.70;1.00
9768;DHT22;4923;52.520;13.494;2023-04-12T02:35:17;2.60;1.00
9768;DHT22;4923;52.520;13.494;2023-04-12T02:38:03;2.60;1.00
9768;DHT22;4923;52.520;13.494;2023-04-12T02:40:52;2.50;53.90
9768;DHT22;4923;52.520;13.494;2023-04-12T02:43:39;2.50;1.00
9768;DHT22;4923;52.520;13.494;2023-04-12T02:46:26;2.50;99.90
9768;DHT22;4923;52.520;13.494;2023-04-12T02:49:13;2.50;99.90
9768;DHT22;4923;52.520;13.494;2023-04-12T02:52:01;2.50;99.90
9768;DHT22;4923;52.520;13.494;2023-04-12T02:54:48;2.50;99.90
9768;DHT22;4923;52.520;13.494;2023-04-12T02:57:35;2.50;1.00
9768;DHT22;4923;52.520;13.494;2023-04-12T03:00:22;2.50;99.90
9768;DHT22;4923;52.520;13.494;2023-04-12T03:03:09;2.50;1.00
9768;DHT22;4923;52.520;13.494;2023-04-12T03:05:56;2.40;1.00
9768;DHT22;4923;52.520;13.494;2023-04-12T03:08:45;2.40;1.00
9768;DHT22;4923;52.520;13.494;2023-04-12T03:11:32;2.40;99.90
9768;DHT22;4923;52.520;13.494;2023-04-12T03:14:19;2.40;1.00
9768;DHT22;4923;52.520;13.494;2023-04-12T03:17:06;2.30;1.00
9768;DHT22;4923;52.520;13.494;2023-04-12T03:19:54;2.40;99.90
9768;DHT22;4923;52.520;13.494;2023-04-12T03:22:42;2.40;1.00
9768;DHT22;4923;52.520;13.494;2023-04-12T03:25:30;2.40;1.00
9768;DHT22;4923;52.520;13.494;2023-04-12T03:28:17;2.30;1.00
9768;DHT22;4923;52.520;13.494;2023-04-12T03:31:04;2.30;99.90
9768;DHT22;4923;52.520;13.494;2023-04-12T03:33:52;2.30;1.00
9768;DHT22;4923;52.520;13.494;2023-04-12T03:36:38;2.20;1.00
9768;DHT22;4923;52.520;13.494;2023-04-12T03:39:26;2.20;99.90
9768;DHT22;4923;52.520;13.494;2023-04-12T03:42:14;2.20;1.00
9768;DHT22;4923;52.520;13.494;2023-04-12T03:45:01;2.10;1.00
9768;DHT22;4923;52.520;13.494;2023-04-12T03:47:48;2.10;99.90
9768;DHT22;4923;52.520;13.494;2023-04-12T03:50:35;2.10;99.90
9768;DHT22;4923;52.520;13.494;2023-04-12T03:53:28;2.10;1.00
9768;DHT22;4923;52.520;13.494;2023-04-12T03:56:16;2.10;1.00
9768;DHT22;4923;52.520;13.494;2023-04-12T03:59:06;2.10;1.00
9768;DHT22;4923;52.520;13.494;2023-04-12T04:01:53;2.10;1.00
9768;DHT22;4923;52.520;13.494;2023-04-12T04:04:40;2.10;99.90
9768;DHT22;4923;52.520;13.494;2023-04-12T04:07:27;2.10;99.90
9768;DHT22;4923;52.520;13.494;2023-04-12T04:10:16;2.10;1.00
9768;DHT22;4923;52.520;13.494;2023-04-12T04:13:03;2.10;7.50
9768;DHT22;4923;52.520;13.494;2023-04-12T04:15:58;2.10;1.00
9768;DHT22;4923;52.520;13.494;2023-04-12T04:18:45;2.10;99.90
9768;DHT22;4923;52.520;13.494;2023-04-12T04:21:32;2.10;1.00
9768;DHT22;4923;52.520;13.494;2023-04-12T04:24:19;2.00;1.00
9768;DHT22;4923;52.520;13.494;2023-04-12T04:27:06;2.00;1.00
9768;DHT22;4923;52.520;13.494;2023-04-12T04:29:53;2.00;99.90
9768;DHT22;4923;52.520;13.494;2023-04-12T04:32:44;2.10;1.00
9768;DHT22;4923;52.520;13.494;2023-04-12T04:35:30;2.10;99.90
9768;DHT22;4923;52.520;13.494;2023-04-12T04:38:17;2.20;47.60
9768;DHT22;4923;52.520;13.494;2023-04-12T04:41:06;2.20;99.90
9768;DHT22;4923;52.520;13.494;2023-04-12T04:43:53;2.20;1.00
9768;DHT22;4923;52.520;13.494;2023-04-12T04:46:40;2.20;99.90
9768;DHT22;4923;52.520;13.494;2023-04-12T04:49:29;2.30;1.00
9768;DHT22;4923;52.520;13.494;2023-04-12T04:52:16;2.30;1.00
9768;DHT22;4923;52.520;13.494;2023-04-12T04:55:03;2.30;93.80
9768;DHT22;4923;52.520;13.494;2023-04-12T04:57:50;2.40;1.00
9768;DHT22;4923;52.520;13.494;2023-04-12T05:00:37;2.50;1.00
9768;DHT22;4923;52.520;13.494;2023-04-12T05:03:24;2.50;1.00
9768;DHT22;4923;52.520;13.494;2023-04-12T05:06:14;2.60;1.00
9768;DHT22;4923;52.520;13.494;2023-04-12T05:09:01;2.70;1.00
9768;DHT22;4923;52.520;13.494;2023-04-12T05:11:49;2.90;99.90
9768;DHT22;4923;52.520;13.494;2023-04-12T05:14:36;3.00;1.00
9768;DHT22;4923;52.520;13.494;2023-04-12T05:17:24;3.10;99.90
9768;DHT22;4923;52.520;13.494;2023-04-12T05:20:11;3.20;1.00
9768;DHT22;4923;52.520;13.494;2023-04-12T05:22:59;3.30;1.00
9768;DHT22;4923;52.520;13.494;2023-04-12T05:25:46;3.50;99.90
9768;DHT22;4923;52.520;13.494;2023-04-12T05:28:34;3.60;99.90
9768;DHT22;4923;52.520;13.494;2023-04-12T05:31:21;3.70;1.00
9768;DHT22;4923;52.520;13.494;2023-04-12T05:34:09;3.80;99.90
9768;DHT22;4923;52.520;13.494;2023-04-12T05:36:56;3.90;1.00
9768;DHT22;4923;52.520;13.494;2023-04-12T05:39:45;4.00;99.90
9768;DHT22;4923;52.520;13.494;2023-04-12T05:42:32;4.20;99.90
9768;DHT22;4923;52.520;13.494;2023-04-12T05:45:19;4.20;1.00
9768;DHT22;4923;52.520;13.494;2023-04-12T05:48:06;4.30;99.90
9768;DHT22;4923;52.520;13.494;2023-04-12T05:50:53;4.40;99.90
9768;DHT22;4923;52.520;13.494;2023-04-12T05:53:40;4.50;99.90
9768;DHT22;4923;52.520;13.494;2023-04-12T05:56:28;4.60;1.00
9768;DHT22;4923;52.520;13.494;2023-04-12T05:59:15;4.60;1.00
9768;DHT22;4923;52.520;13.494;2023-04-12T06:02:03;4.80;1.00
9768;DHT22;4923;52.520;13.494;2023-04-12T06:04:50;4.90;1.00
9768;DHT22;4923;52.520;13.494;2023-04-12T06:07:38;5.00;1.00
9768;DHT22;4923;52.520;13.494;2023-04-12T06:10:26;6.10;99.90
9768;DHT22;4923;52.520;13.494;2023-04-12T06:13:14;6.30;1.00
9768;DHT22;4923;52.520;13.494;2023-04-12T06:16:01;6.60;1.00
9768;DHT22;4923;52.520;13.494;2023-04-12T06:18:48;6.70;1.00
9768;DHT22;4923;52.520;13.494;2023-04-12T06:21:35;6.60;1.00
9768;DHT22;4923;52.520;13.494;2023-04-12T06:24:22;6.50;1.00
9768;DHT22;4923;52.520;13.494;2023-04-12T06:27:09;6.40;1.00
9768;DHT22;4923;52.520;13.494;2023-04-12T06:29:57;6.50;1.00
9768;DHT22;4923;52.520;13.494;2023-04-12T06:32:44;6.50;99.90
9768;DHT22;4923;52.520;13.494;2023-04-12T06:35:31;6.60;1.00
9768;DHT22;4923;52.520;13.494;2023-04-12T06:38:18;6.70;99.90
9768;DHT22;4923;52.520;13.494;2023-04-12T06:41:05;6.80;99.90
9768;DHT22;4923;52.520;13.494;2023-04-12T06:43:52;6.90;99.90
9768;DHT22;4923;52.520;13.494;2023-04-12T06:46:40;7.00;99.90
9768;DHT22;4923;52.520;13.494;2023-04-12T06:49:27;7.20;1.00
9768;DHT22;4923;52.520;13.494;2023-04-12T06:52:14;7.20;99.90
9768;DHT22;4923;52.520;13.494;2023-04-12T06:55:01;7.30;99.90
9768;DHT22;4923;52.520;13.494;2023-04-12T06:57:48;7.50;99.90
9768;DHT22;4923;52.520;13.494;2023-04-12T07:00:36;7.50;99.90
9768;DHT22;4923;52.520;13.494;2023-04-12T07:03:24;7.70;99.90
9768;DHT22;4923;52.520;13.494;2023-04-12T07:06:13;7.80;99.90
9768;DHT22;4923;52.520;13.494;2023-04-12T07:09:00;8.00;99.90
9768;DHT22;4923;52.520;13.494;2023-04-12T07:11:47;8.10;1.00
9768;DHT22;4923;52.520;13.494;2023-04-12T07:14:34;8.20;1.00
9768;DHT22;4923;52.520;13.494;2023-04-12T07:17:21;8.40;1.00
9768;DHT22;4923;52.520;13.494;2023-04-12T07:20:10;8.60;1.00
9768;DHT22;4923;52.520;13.494;2023-04-12T07:22:57;8.70;99.90
9768;DHT22;4923;52.520;13.494;2023-04-12T07:25:44;8.90;1.00
9768;DHT22;4923;52.520;13.494;2023-04-12T07:28:31;9.00;1.00
9768;DHT22;4923;52.520;13.494;2023-04-12T07:31:18;9.20;1.00
9768;DHT22;4923;52.520;13.494;2023-04-12T07:34:05;9.20;1.00
9768;DHT22;4923;52.520;13.494;2023-04-12T07:36:53;9.40;1.00
9768;DHT22;4923;52.520;13.494;2023-04-12T07:39:40;9.60;1.00
9768;DHT22;4923;52.520;13.494;2023-04-12T07:42:27;9.70;99.90
9768;DHT22;4923;52.520;13.494;2023-04-12T07:45:14;9.80;99.90
9768;DHT22;4923;52.520;13.494;2023-04-12T07:48:01;10.00;99.90
9768;DHT22;4923;52.520;13.494;2023-04-12T07:50:48;10.10;99.90
9768;DHT22;4923;52.520;13.494;2023-04-12T07:53:36;10.30;99.90
9768;DHT22;4923;52.520;13.494;2023-04-12T07:56:23;10.50;99.90
9768;DHT22;4923;52.520;13.494;2023-04-12T07:59:10;10.50;99.90
9768;DHT22;4923;52.520;13.494;2023-04-12T08:01:57;10.50;79.00
9768;DHT22;4923;52.520;13.494;2023-04-12T08:04:44;10.60;39.60
9768;DHT22;4923;52.520;13.494;2023-04-12T08:07:31;10.70;11.60
9768;DHT22;4923;52.520;13.494;2023-04-12T08:10:20;10.80;1.00
9768;DHT22;4923;52.520;13.494;2023-04-12T08:13:07;10.80;1.00
9768;DHT22;4923;52.520;13.494;2023-04-12T08:15:54;10.90;1.00
9768;DHT22;4923;52.520;13.494;2023-04-12T08:18:40;11.00;1.00
9768;DHT22;4923;52.520;13.494;2023-04-12T08:21:27;11.10;1.00
9768;DHT22;4923;52.520;13.494;2023-04-12T08:24:15;11.10;1.00
9768;DHT22;4923;52.520;13.494;2023-04-12T08:27:03;11.20;1.00
9768;DHT22;4923;52.520;13.494;2023-04-12T08:29:50;11.30;1.00
9768;DHT22;4923;52.520;13.494;2023-04-12T08:32:37;11.40;1.00
9768;DHT22;4923;52.520;13.494;2023-04-12T08:35:24;11.50;1.00
9768;DHT22;4923;52.520;13.494;2023-04-12T08:38:11;11.70;1.00
9768;DHT22;4923;52.520;13.494;2023-04-12T08:40:58;11.80;1.00
9768;DHT22;4923;52.520;13.494;2023-04-12T08:43:50;11.80;1.00
9768;DHT22;4923;52.520;13.494;2023-04-12T08:46:37;11.90;1.00
9768;DHT22;4923;52.520;13.494;2023-04-12T08:49:24;11.90;1.00
9768;DHT22;4923;52.520;13.494;2023-04-12T08:52:12;12.00;1.00
9768;DHT22;4923;52.520;13.494;2023-04-12T08:55:01;12.10;1.00
9768;DHT22;4923;52.520;13.494;2023-04-12T08:57:48;12.40;1.00
9768;DHT22;4923;52.520;13.494;2023-04-12T09:00:37;12.50;1.00
9768;DHT22;4923;52.520;13.494;2023-04-12T09:03:24;12.40;1.00
9768;DHT22;4923;52.520;13.494;2023-04-12T09:06:11;12.50;1.00
9768;DHT22;4923;52.520;13.494;2023-04-12T09:08:58;12.50;1.00
9768;DHT22;4923;52.520;13.494;2023-04-12T09:11:46;12.50;1.00
9768;DHT22;4923;52.520;13.494;2023-04-12T09:14:32;12.70;1.00
9768;DHT22;4923;52.520;13.494;2023-04-12T09:17:22;12.80;1.00
9768;DHT22;4923;52.520;13.494;2023-04-12T09:20:22;13.00;1.00
9768;DHT22;4923;52.520;13.494;2023-04-12T09:23:17;13.10;1.00
9768;DHT22;4923;52.520;13.494;2023-04-12T09:26:04;13.10;1.00
9768;DHT22;4923;52.520;13.494;2023-04-12T09:28:52;13.20;1.00
9768;DHT22;4923;52.520;13.494;2023-04-12T09:31:54;13.20;1.00
9768;DHT22;4923;52.520;13.494;2023-04-12T09:34:54;13.20;1.00
9768;DHT22;4923;52.520;13.494;2023-04-12T09:37:41;13.30;1.00
9768;DHT22;4923;52.520;13.494;2023-04-12T09:40:28;13.40;1.00
9768;DHT22;4923;52.520;13.494;2023-04-12T09:43:35;13.50;1.00
9768;DHT22;4923;52.520;13.494;2023-04-12T09:46:22;13.50;1.00
9768;DHT22;4923;52.520;13.494;2023-04-12T09:49:08;13.60;1.00
9768;DHT22;4923;52.520;13.494;2023-04-12T09:51:57;13.70;1.00
9768;DHT22;4923;52.520;13.494;2023-04-12T09:54:45;13.60;1.00
9768;DHT22;4923;52.520;13.494;2023-04-12T09:57:33;13.70;1.00
9768;DHT22;4923;52.520;13.494;2023-04-12T10:00:22;13.60;1.00
9768;DHT22;4923;52.520;13.494;2023-04-12T10:03:11;13.70;1.00
9768;DHT22;4923;52.520;13.494;2023-04-12T10:05:58;13.80;1.00
9768;DHT22;4923;52.520;13.494;2023-04-12T10:08:48;13.90;1.00
9768;DHT22;4923;52.520;13.494;2023-04-12T10:11:35;13.90;1.00
9768;DHT22;4923;52.520;13.494;2023-04-12T10:14:26;13.90;1.00
9768;DHT22;4923;52.520;13.494;2023-04-12T10:17:13;14.00;1.00
9768;DHT22;4923;52.520;13.494;2023-04-12T10:20:01;14.10;1.00
9768;DHT22;4923;52.520;13.494;2023-04-12T10:22:51;14.20;1.00
9768;DHT22;4923;52.520;13.494;2023-04-12T10:25:25;14.20;1.00
9768;DHT22;4923;52.520;13.494;2023-04-12T10:28:16;14.30;1.00
9768;DHT22;4923;52.520;13.494;2023-04-12T10:31:27;14.30;1.00
9768;DHT22;4923;52.520;13.494;2023-04-12T10:34:15;14.40;1.00
9768;DHT22;4923;52.520;13.494;2023-04-12T10:37:02;14.40;1.00
9768;DHT22;4923;52.520;13.494;2023-04-12T10:39:52;14.20;1.00
9768;DHT22;4923;52.520;13.494;2023-04-12T10:42:40;14.20;1.00
9768;DHT22;4923;52.520;13.494;2023-04-12T10:45:37;14.30;1.00
9768;DHT22;4923;52.520;13.494;2023-04-12T10:48:31;14.40;1.00
9768;DHT22;4923;52.520;13.494;2023-04-12T10:51:20;14.60;1.00
9768;DHT22;4923;52.520;13.494;2023-04-12T10:54:30;14.60;1.00
9768;DHT22;4923;52.520;13.494;2023-04-12T10:57:45;14.60;1.00
9768;DHT22;4923;52.520;13.494;2023-04-12T11:04:16;14.80;1.00
9768;DHT22;4923;52.520;13.494;2023-04-12T11:07:06;15.00;1.00
9768;DHT22;4923;52.520;13.494;2023-04-12T11:09:56;15.10;1.00
9768;DHT22;4923;52.520;13.494;2023-04-12T11:12:48;15.20;1.00
9768;DHT22;4923;52.520;13.494;2023-04-12T11:15:37;15.20;1.00
9768;DHT22;4923;52.520;13.494;2023-04-12T11:18:25;15.30;1.00
9768;DHT22;4923;52.520;13.494;2023-04-12T11:21:12;15.30;1.00
9768;DHT22;4923;52.520;13.494;2023-04-12T11:23:59;15.20;1.00
9768;DHT22;4923;52.520;13.494;2023-04-12T11:26:46;15.10;1.00
9768;DHT22;4923;52.520;13.494;2023-04-12T11:29:35;15.20;1.00
9768;DHT22;4923;52.520;13.494;2023-04-12T11:32:24;15.20;1.00
9768;DHT22;4923;52.520;13.494;2023-04-12T11:35:13;15.20;1.00
9768;DHT22;4923;52.520;13.494;2023-04-12T11:38:00;15.30;1.00
9768;DHT22;4923;52.520;13.494;2023-04-12T11:40:47;15.50;1.00
9768;DHT22;4923;52.520;13.494;2023-04-12T11:43:35;15.50;1.00
9768;DHT22;4923;52.520;13.494;2023-04-12T11:46:24;15.50;1.00
9768;DHT22;4923;52.520;13.494;2023-04-12T11:49:13;15.60;1.00
9768;DHT22;4923;52.520;13.494;2023-04-12T11:52:02;15.80;1.00
9768;DHT22;4923;52.520;13.494;2023-04-12T11:54:49;15.70;1.00
9768;DHT22;4923;52.520;13.494;2023-04-12T11:57:41;15.60;1.00
9768;DHT22;4923;52.520;13.494;2023-04-12T12:00:27;15.90;1.00
9768;DHT22;4923;52.520;13.494;2023-04-12T12:03:17;16.10;1.00
9768;DHT22;4923;52.520;13.494;2023-04-12T12:06:05;16.00;1.00
9768;DHT22;4923;52.520;13.494;2023-04-12T12:08:53;16.10;1.00
9768;DHT22;4923;52.520;13.494;2023-04-12T12:11:40;16.20;1.00
9768;DHT22;4923;52.520;13.494;2023-04-12T12:14:28;16.40;1.00
9768;DHT22;4923;52.520;13.494;2023-04-12T12:17:15;16.50;1.00
9768;DHT22;4923;52.520;13.494;2023-04-12T12:20:05;16.60;1.00
9768;DHT22;4923;52.520;13.494;2023-04-12T12:22:52;16.80;1.00
9768;DHT22;4923;52.520;13.494;2023-04-12T12:25:44;17.10;1.00
9768;DHT22;4923;52.520;13.494;2023-04-12T12:28:35;17.30;1.00
9768;DHT22;4923;52.520;13.494;2023-04-12T12:31:24;17.40;1.00
9768;DHT22;4923;52.520;13.494;2023-04-12T12:34:12;17.50;1.00
9768;DHT22;4923;52.520;13.494;2023-04-12T12:37:01;17.60;1.00
9768;DHT22;4923;52.520;13.494;2023-04-12T12:40:05;17.60;1.00
9768;DHT22;4923;52.520;13.494;2023-04-12T12:42:58;17.50;1.00
9768;DHT22;4923;52.520;13.494;2023-04-12T12:45:45;17.70;1.00
9768;DHT22;4923;52.520;13.494;2023-04-12T12:48:32;17.90;1.00
9768;DHT22;4923;52.520;13.494;2023-04-12T12:51:24;17.90;1.00
9768;DHT22;4923;52.520;13.494;2023-04-12T12:54:15;18.00;1.00
9768;DHT22;4923;52.520;13.494;2023-04-12T12:57:02;17.90;1.00
9768;DHT22;4923;52.520;13.494;2023-04-12T12:59:49;17.60;1.00
9768;DHT22;4923;52.520;13.494;2023-04-12T13:02:38;17.60;1.00
9768;DHT22;4923;52.520;13.494;2023-04-12T13:05:25;17.50;1.00
9768;DHT22;4923;52.520;13.494;2023-04-12T13:08:12;17.30;1.00
9768;DHT22;4923;52.520;13.494;2023-04-12T13:11:00;17.40;1.00
9768;DHT22;4923;52.520;13.494;2023-04-12T13:13:47;17.20;1.00
9768;DHT22;4923;52.520;13.494;2023-04-12T13:16:34;17.30;1.00
9768;DHT22;4923;52.520;13.494;2023-04-12T13:19:21;17.50;1.00
9768;DHT22;4923;52.520;13.494;2023-04-12T13:22:08;17.80;1.00
9768;DHT22;4923;52.520;13.494;2023-04-12T13:24:54;17.80;1.00
9768;DHT22;4923;52.520;13.494;2023-04-12T13:27:43;18.10;1.00
9768;DHT22;4923;52.520;13.494;2023-04-12T13:30:29;18.20;1.00
9768;DHT22;4923;52.520;13.494;2023-04-12T13:33:16;18.20;1.00
9768;DHT22;4923;52.520;13.494;2023-04-12T13:36:03;18.30;1.00
9768;DHT22;4923;52.520;13.494;2023-04-12T13:38:51;18.20;1.00
9768;DHT22;4923;52.520;13.494;2023-04-12T13:41:37;17.90;1.00
9768;DHT22;4923;52.520;13.494;2023-04-12T13:44:26;17.60;1.00
9768;DHT22;4923;52.520;13.494;2023-04-12T13:47:13;17.60;1.00
9768;DHT22;4923;52.520;13.494;2023-04-12T13:50:00;17.40;1.00
9768;DHT22;4923;52.520;13.494;2023-04-12T13:52:47;17.40;1.00
9768;DHT22;4923;52.520;13.494;2023-04-12T13:55:34;17.30;1.00
9768;DHT22;4923;52.520;13.494;2023-04-12T13:58:21;17.40;1.00
9768;DHT22;4923;52.520;13.494;2023-04-12T14:01:09;17.30;1.00
9768;DHT22;4923;52.520;13.494;2023-04-12T14:03:56;17.20;1.00
9768;DHT22;4923;52.520;13.494;2023-04-12T14:06:43;17.30;1.00
9768;DHT22;4923;52.520;13.494;2023-04-12T14:09:31;17.20;1.00
9768;DHT22;4923;52.520;13.494;2023-04-12T14:12:18;17.10;1.00
9768;DHT22;4923;52.520;13.494;2023-04-12T14:15:06;17.00;1.00
9768;DHT22;4923;52.520;13.494;2023-04-12T14:17:54;17.00;1.00
9768;DHT22;4923;52.520;13.494;2023-04-12T14:20:41;16.80;1.00
9768;DHT22;4923;52.520;13.494;2023-04-12T14:23:31;16.60;1.00
9768;DHT22;4923;52.520;13.494;2023-04-12T14:26:17;16.50;1.00
9768;DHT22;4923;52.520;13.494;2023-04-12T14:29:04;16.30;1.00
9768;DHT22;4923;52.520;13.494;2023-04-12T14:31:51;16.10;1.00
9768;DHT22;4923;52.520;13.494;2023-04-12T14:34:40;15.90;1.00
9768;DHT22;4923;52.520;13.494;2023-04-12T14:37:27;15.90;1.00
9768;DHT22;4923;52.520;13.494;2023-04-12T14:40:15;15.80;1.00
9768;DHT22;4923;52.520;13.494;2023-04-12T14:43:03;15.60;1.00
9768;DHT22;4923;52.520;13.494;2023-04-12T14:45:50;15.60;1.00
9768;DHT22;4923;52.520;13.494;2023-04-12T14:48:37;15.50;1.00
9768;DHT22;4923;52.520;13.494;2023-04-12T14:51:25;15.50;1.00
9768;DHT22;4923;52.520;13.494;2023-04-12T14:54:12;15.50;1.00
9768;DHT22;4923;52.520;13.494;2023-04-12T14:56:59;15.50;1.00
9768;DHT22;4923;52.520;13.494;2023-04-12T14:59:46;15.50;1.00
9768;DHT22;4923;52.520;13.494;2023-04-12T15:02:33;15.40;1.00
9768;DHT22;4923;52.520;13.494;2023-04-12T15:05:19;15.30;1.00
9768;DHT22;4923;52.520;13.494;2023-04-12T15:08:08;15.10;1.00
9768;DHT22;4923;52.520;13.494;2023-04-12T15:10:55;14.90;1.00
9768;DHT22;4923;52.520;13.494;2023-04-12T15:13:42;14.90;1.00
9768;DHT22;4923;52.520;13.494;2023-04-12T15:16:29;14.90;1.00
9768;DHT22;4923;52.520;13.494;2023-04-12T15:19:15;14.90;1.00
9768;DHT22;4923;52.520;13.494;2023-04-12T15:22:04;14.80;1.00
9768;DHT22;4923;52.520;13.494;2023-04-12T15:24:54;14.80;1.00
9768;DHT22;4923;52.520;13.494;2023-04-12T15:27:41;14.70;1.00
9768;DHT22;4923;52.520;13.494;2023-04-12T15:30:28;14.60;1.00
9768;DHT22;4923;52.520;13.494;2023-04-12T15:33:16;14.30;1.00
9768;DHT22;4923;52.520;13.494;2023-04-12T15:36:04;14.20;1.00
9768;DHT22;4923;52.520;13.494;2023-04-12T15:38:50;14.10;1.00
9768;DHT22;4923;52.520;13.494;2023-04-12T15:41:40;14.00;1.00
9768;DHT22;4923;52.520;13.494;2023-04-12T15:44:27;13.80;1.00
9768;DHT22;4923;52.520;13.494;2023-04-12T15:47:16;13.70;1.00
9768;DHT22;4923;52.520;13.494;2023-04-12T15:50:04;13.60;1.00
9768;DHT22;4923;52.520;13.494;2023-04-12T15:52:51;13.50;1.00
9768;DHT22;4923;52.520;13.494;2023-04-12T15:55:42;13.40;1.00
9768;DHT22;4923;52.520;13.494;2023-04-12T15:58:30;13.40;1.00
9768;DHT22;4923;52.520;13.494;2023-04-12T16:01:17;13.40;1.00
9768;DHT22;4923;52.520;13.494;2023-04-12T16:04:04;13.50;1.00
9768;DHT22;4923;52.520;13.494;2023-04-12T16:06:51;13.50;1.00
9768;DHT22;4923;52.520;13.494;2023-04-12T16:09:38;13.60;1.00
9768;DHT22;4923;52.520;13.494;2023-04-12T16:12:25;13.60;1.00
9768;DHT22;4923;52.520;13.494;2023-04-12T16:15:14;13.40;1.00
9768;DHT22;4923;52.520;13.494;2023-04-12T16:18:01;13.20;1.00
9768;DHT22;4923;52.520;13.494;2023-04-12T16:20:48;13.00;1.00
9768;DHT22;4923;52.520;13.494;2023-04-12T16:23:37;12.80;1.00
9768;DHT22;4923;52.520;13.494;2023-04-12T16:26:24;12.80;1.00
9768;DHT22;4923;52.520;13.494;2023-04-12T16:29:11;12.80;1.00
9768;DHT22;4923;52.520;13.494;2023-04-12T16:31:59;12.70;1.00
9768;DHT22;4923;52.520;13.494;2023-04-12T16:34:47;12.60;1.00
9768;DHT22;4923;52.520;13.494;2023-04-12T16:37:36;12.50;1.00
9768;DHT22;4923;52.520;13.494;2023-04-12T16:40:23;12.50;1.00
9768;DHT22;4923;52.520;13.494;2023-04-12T16:43:10;12.40;1.00
9768;DHT22;4923;52.520;13.494;2023-04-12T16:46:02;12.40;1.00
9768;DHT22;4923;52.520;13.494;2023-04-12T16:48:50;12.30;1.00
9768;DHT22;4923;52.520;13.494;2023-04-12T16:51:37;12.30;1.00
9768;DHT22;4923;52.520;13.494;2023-04-12T16:54:24;12.20;1.00
9768;DHT22;4923;52.520;13.494;2023-04-12T16:57:11;12.10;1.00
9768;DHT22;4923;52.520;13.494;2023-04-12T16:59:58;12.10;1.00
9768;DHT22;4923;52.520;13.494;2023-04-12T17:02:47;12.10;1.00
9768;DHT22;4923;52.520;13.494;2023-04-12T17:05:35;12.00;1.00
9768;DHT22;4923;52.520;13.494;2023-04-12T17:08:23;12.10;1.00
9768;DHT22;4923;52.520;13.494;2023-04-12T17:11:10;12.10;1.00
9768;DHT22;4923;52.520;13.494;2023-04-12T17:13:57;12.10;1.00
9768;DHT22;4923;52.520;13.494;2023-04-12T17:16:44;12.10;1.00
9768;DHT22;4923;52.520;13.494;2023-04-12T17:19:31;12.10;1.00
9768;DHT22;4923;52.520;13.494;2023-04-12T17:22:20;12.00;1.00
9768;DHT22;4923;52.520;13.494;2023-04-12T17:25:08;12.00;9.10
9768;DHT22;4923;52.520;13.494;2023-04-12T17:27:55;11.80;33.10
9768;DHT22;4923;52.520;13.494;2023-04-12T17:30:42;11.90;65.40
9768;DHT22;4923;52.520;13.494;2023-04-12T17:33:28;11.80;81.50
9768;DHT22;4923;52.520;13.494;2023-04-12T17:36:15;11.80;99.90
9768;DHT22;4923;52.520;13.494;2023-04-12T17:39:04;11.70;99.90
9768;DHT22;4923;52.520;13.494;2023-04-12T17:41:50;11.70;99.90
9768;DHT22;4923;52.520;13.494;2023-04-12T17:44:37;11.50;99.90
9768;DHT22;4923;52.520;13.494;2023-04-12T17:47:24;11.50;99.90
9768;DHT22;4923;52.520;13.494;2023-04-12T17:50:11;11.50;99.90
9768;DHT22;4923;52.520;13.494;2023-04-12T17:52:58;11.50;99.90
9768;DHT22;4923;52.520;13.494;2023-04-12T17:55:47;11.50;99.90
9768;DHT22;4923;52.520;13.494;2023-04-12T17:58:34;11.40;99.90
9768;DHT22;4923;52.520;13.494;2023-04-12T18:01:21;11.50;99.90
9768;DHT22;4923;52.520;13.494;2023-04-12T18:04:08;11.50;99.90
9768;DHT22;4923;52.520;13.494;2023-04-12T18:06:56;11.40;99.90
9768;DHT22;4923;52.520;13.494;2023-04-12T18:09:43;11.40;99.90
9768;DHT22;4923;52.520;13.494;2023-04-12T18:12:31;11.30;99.90
9768;DHT22;4923;52.520;13.494;2023-04-12T18:15:18;11.30;99.90
9768;DHT22;4923;52.520;13.494;2023-04-12T18:18:05;11.30;99.90
9768;DHT22;4923;52.520;13.494;2023-04-12T18:20:52;11.30;99.90
9768;DHT22;4923;52.520;13.494;2023-04-12T18:23:39;11.30;99.90
9768;DHT22;4923;52.520;13.494;2023-04-12T18:26:26;11.30;99.90